Tin City LRRS, AK

4:58 PM AKDT on May 04, 2015 (GMT -0800)
Nome | | Change Station
CLOSE
Current Station
Airport
Location: Nome,
Elevation: 36 ft
Nearby Weather Stations

Elev 36 ft 64.51 °N, 165.45 °W | Updated 5 minutes ago

Scattered Clouds
Scattered Clouds
37 °F
Feels Like 33 °F
N
5
Wind Variable Wind from SSW

Today
High -- | Low -- °F
--% Chance of Precip.
Yesterday
High -- | Low -- °F
Precip. -- in
6:21 AM 11:58 PM
Full, 99% visible
Pressure 30.12 in
Visibility 10.0 miles
Clouds Scattered Clouds 25000 ft
Windchill 33 °F
Dew Point 33 °F
Humidity 86%
Rainfall 0.00 in
Snow Depth Not available.
UV 4 out of 12
Pollen Not available.
Air Quality Not available.
Flu Activity Sporadic
METAR PAOM 050053Z 21004KT 10SM SCT250 03/01 A3012 RMK SLP198 T00280006 VIA AUTODIAL

More Conditions Fewer Conditions

Pressure 30.12 in
Visibility 10.0 miles
Clouds Scattered Clouds 25000 ft
Windchill 33 °F
Dew Point 33 °F
Humidity 86%
Rainfall 0.00 in
Snow Depth Not available.
UV 4 out of 12
Pollen Not available.
Air Quality Not available.
Flu Activity Sporadic
METAR PAOM 050053Z 21004KT 10SM SCT250 03/01 A3012 RMK SLP198 T00280006 VIA AUTODIAL

More Conditions Fewer Conditions

10-Day Weather Forecast

Almanac

Astronomy

May. 04, 2015 Rise Set
Actual Time
Civil Twilight
Nautical Twilight
Astronomical Twilight
Moon
Length of Visible Light
Length of Day
Tomorrow will be .
, % of the Moon is Illuminated

Today's Extremes

State Highs State Lows

Community

WunderPhotos

Upload Photos

1,818,766 photos uploaded!

WunderBlogs® & News

Nearby

Air Quality

  Air Quality AQ Index Pollutant
Not available.

Snow Depth

Station Depth Elevation

Earthquake Activity

City Distance Mag. Time & Date
Minimum magnitude displayed is 2.5.

Coastal Water Temperatures

Place Temperature

Stations

Nearby Weather Stations

Station Location Temp. Windchill Dew Point Humidity Wind Precip. Elev Updated Type